Time;durP1;ratioP1;P1;durP2;ratioP2;P2;SDS_P1;SDS_P2;PMS_P1;PMS_P2;Temp;Humidity;BMP_temperature;BMP_pressure;BME280_temperature;BME280_humidity;BME280_pressure;Samples;Min_cycle;Max_cycle;Signal;HPM_P1;HPM_P2
2021/06/23 00:01:18;;;;;;;8.18;0.93;;;21.20;91.30;;;20.78;59.07;100316.91;5086539;28;20119;-53
2021/06/23 00:03:45;;;;;;;8.32;1.73;;;21.20;90.80;;;20.86;58.37;100316.63;5088360;28;20328;-57
2021/06/23 00:06:11;;;;;;;9.25;1.13;;;21.30;90.40;;;20.87;58.18;100320.88;5083479;28;20040;-51
2021/06/23 00:08:37;;;;;;;6.68;0.90;;;21.30;90.20;;;20.92;57.97;100319.44;5086846;28;20040;-56
2021/06/23 00:11:05;;;;;;;7.60;1.52;;;21.30;90.00;;;20.92;58.20;100322.88;5084801;28;20336;-49
2021/06/23 00:13:33;;;;;;;9.18;1.58;;;21.40;90.20;;;20.81;59.09;100320.94;5083670;28;20125;-57
2021/06/23 00:16:06;;;;;;;3.80;0.88;;;21.30;90.70;;;20.74;60.03;100320.19;5069719;28;20032;-55
2021/06/23 00:18:33;;;;;;;7.07;1.27;;;21.20;91.40;;;20.55;60.69;100324.56;5086781;28;20028;-59
2021/06/23 00:20:59;;;;;;;5.97;1.00;;;21.10;92.00;;;20.38;61.70;100316.31;5085446;28;20540;-49
2021/06/23 00:23:25;;;;;;;8.45;1.17;;;21.00;92.90;;;20.28;62.50;100321.25;5085087;28;20118;-57
2021/06/23 00:25:51;;;;;;;9.13;1.40;;;20.90;93.70;;;20.23;62.73;100320.25;5086676;28;20077;-58
2021/06/23 00:28:17;;;;;;;7.88;1.10;;;20.80;94.10;;;20.30;61.99;100324.50;5086581;28;20036;-56
2021/06/23 00:30:44;;;;;;;10.65;1.10;;;20.80;94.00;;;20.34;61.98;100319.56;5084246;28;20044;-54
2021/06/23 00:33:18;;;;;;;6.85;1.20;;;20.80;94.00;;;20.38;61.89;100318.16;5083520;28;20509;-60
2021/06/23 00:35:45;;;;;;;6.13;1.30;;;20.80;94.00;;;20.46;60.97;100320.56;5067842;28;20040;-59
2021/06/23 00:38:12;;;;;;;13.07;1.10;;;20.90;93.50;;;20.56;60.15;100323.56;5083220;28;20283;-58
2021/06/23 00:40:40;;;;;;;9.02;0.80;;;21.00;93.10;;;20.62;59.88;100319.25;5069758;28;20028;-61
2021/06/23 00:43:06;;;;;;;8.57;1.52;;;21.10;92.90;;;20.59;60.36;100328.44;5086816;28;20182;-54
2021/06/23 00:45:33;;;;;;;6.68;1.33;;;21.10;93.10;;;20.51;60.97;100316.25;5068367;28;20040;-51
2021/06/23 00:48:00;;;;;;;10.07;0.85;;;21.10;93.40;;;20.44;61.32;100319.97;5069654;28;20339;-52
2021/06/23 00:50:27;;;;;;;10.13;0.80;;;20.90;93.70;;;20.39;61.40;100323.22;5084988;28;20111;-51
2021/06/23 00:52:54;;;;;;;11.77;1.52;;;20.90;94.00;;;20.36;61.63;100328.09;5067387;28;20576;-61
2021/06/23 00:55:26;;;;;;;10.75;2.47;;;20.80;94.10;;;20.32;60.98;100319.00;5087384;28;20532;-60
2021/06/23 00:57:54;;;;;;;11.70;0.75;;;20.80;93.70;;;20.28;60.94;100320.44;5084683;28;20114;-57
2021/06/23 01:00:35;;;;;;;7.78;1.88;;;20.80;93.70;;;20.25;61.58;100323.50;5087627;28;20028;-60
2021/06/23 01:03:05;;;;;;;10.00;1.13;;;20.70;94.10;;;20.17;62.08;100312.13;5085414;28;20043;-52
2021/06/23 01:05:31;;;;;;;8.10;1.10;;;20.70;94.30;;;20.14;62.36;100307.28;5102940;28;20457;-61
2021/06/23 01:07:57;;;;;;;6.68;1.02;;;20.60;95.00;;;20.04;62.79;100304.25;5085155;28;20036;-52
2021/06/23 01:10:23;;;;;;;10.18;1.10;;;20.50;95.50;;;20.01;63.24;100311.78;5086630;28;20360;-60
2021/06/23 01:13:30;;;;;;;9.82;1.08;;;20.60;96.20;;;19.98;64.10;100313.03;5085589;28;20483;-50
2021/06/23 01:16:02;;;;;;;11.43;1.30;;;20.50;96.70;;;20.00;63.39;100316.28;5074410;28;20167;-65
2021/06/23 01:18:28;;;;;;;16.70;2.85;;;20.50;96.50;;;19.98;63.73;100306.94;5062929;28;20541;-47
2021/06/23 01:20:54;;;;;;;9.00;1.17;;;20.50;97.00;;;19.98;63.96;100312.22;5066970;28;20039;-61
2021/06/23 01:23:20;;;;;;;10.70;1.35;;;20.50;97.30;;;19.99;63.80;100314.66;5085380;28;20036;-59
2021/06/23 01:25:50;;;;;;;6.07;0.73;;;20.50;97.30;;;20.00;63.77;100299.59;5084051;28;20035;-55
2021/06/23 01:28:16;;;;;;;8.02;0.77;;;20.50;97.30;;;19.94;64.20;100295.97;5085817;28;20047;-57
2021/06/23 01:30:42;;;;;;;6.97;0.77;;;20.50;98.00;;;19.84;64.82;100300.91;5067965;28;20581;-57
2021/06/23 01:33:09;;;;;;;9.13;1.45;;;20.40;98.60;;;19.82;64.38;100306.41;5089871;28;20439;-58
2021/06/23 01:35:35;;;;;;;7.05;1.52;;;20.30;98.30;;;19.86;63.69;100294.34;5070462;28;20032;-56
2021/06/23 01:38:04;;;;;;;6.18;0.95;;;20.30;97.90;;;19.84;63.87;100300.91;5089558;28;20368;-54
2021/06/23 01:40:32;;;;;;;7.43;1.48;;;20.30;97.90;;;19.84;63.72;100290.31;5070409;28;20176;-59
2021/06/23 01:42:58;;;;;;;12.23;0.70;;;20.30;98.10;;;19.82;64.03;100293.16;5088407;28;20051;-63
2021/06/23 01:45:25;;;;;;;7.22;0.90;;;20.30;98.60;;;19.87;63.77;100295.16;5088891;28;20040;-55
2021/06/23 01:47:51;;;;;;;6.82;1.08;;;20.30;98.10;;;19.82;64.11;100302.94;5088888;28;20111;-58
2021/06/23 01:50:21;;;;;;;9.07;0.95;;;20.30;98.40;;;19.80;64.49;100304.97;5088954;28;20088;-58
2021/06/23 01:52:47;;;;;;;8.13;1.23;;;20.30;98.50;;;19.79;64.12;100292.78;5070688;28;20624;-56
2021/06/23 01:55:27;;;;;;;13.80;1.63;;;20.30;98.60;;;19.75;64.11;100302.16;5090764;28;20558;-52
2021/06/23 01:57:59;;;;;;;13.18;0.80;;;20.30;98.70;;;19.74;64.94;100300.53;5090563;28;20051;-58
2021/06/23 02:00:34;;;;;;;12.95;1.73;;;20.20;99.20;;;19.72;65.18;100307.84;5090485;28;20040;-55
2021/06/23 02:03:44;;;;;;;6.85;0.98;;;20.20;99.40;;;19.66;65.25;100298.91;5072133;28;20029;-52
2021/06/23 02:06:32;;;;;;;8.85;1.05;;;20.20;99.50;;;19.63;65.45;100301.97;5074613;28;20040;-57
2021/06/23 02:09:42;;;;;;;8.60;0.73;;;20.10;99.80;;;19.62;65.43;100291.59;5090165;28;20040;-48
2021/06/23 02:12:40;;;;;;;9.82;1.52;;;20.10;99.90;;;19.66;64.62;100292.81;5086091;28;20071;-58
2021/06/23 02:15:06;;;;;;;10.73;1.58;;;20.10;99.70;;;19.74;63.78;100300.53;5090228;28;20521;-58
2021/06/23 02:17:33;;;;;;;6.43;0.50;;;20.20;99.00;;;19.80;63.11;100294.41;5089677;28;20047;-59
2021/06/23 02:20:02;;;;;;;11.85;1.35;;;20.20;98.60;;;19.79;63.53;100298.88;5089835;28;20036;-54
2021/06/23 02:22:33;;;;;;;13.02;1.63;;;20.30;98.70;;;19.82;63.10;100308.22;5071489;28;20032;-62
2021/06/23 02:25:10;;;;;;;9.68;0.85;;;20.30;98.40;;;19.79;63.00;100311.28;5089706;28;20466;-49
2021/06/23 02:27:41;;;;;;;7.72;1.30;;;20.30;98.30;;;19.78;63.04;100307.00;5087977;28;20066;-56
2021/06/23 02:30:11;;;;;;;11.23;1.90;;;20.20;98.20;;;19.74;63.00;100311.91;5105278;28;20032;-49
2021/06/23 02:32:40;;;;;;;9.63;1.13;;;20.20;98.20;;;19.73;63.22;100315.56;5089346;28;20085;-59
2021/06/23 02:35:09;;;;;;;9.88;1.33;;;20.20;98.50;;;19.68;63.47;100317.22;5089381;28;20039;-57
2021/06/23 02:45:36;;;;;;;5.50;0.90;;;20.10;99.50;;;19.65;64.34;100318.44;4362056;28;22322;-55
2021/06/23 02:48:03;;;;;;;6.65;1.05;;;20.10;99.50;;;19.64;63.55;100316.00;4908723;29;20059;-54
2021/06/23 02:50:35;;;;;;;6.10;1.00;;;20.10;99.00;;;19.67;63.32;100328.78;4910564;29;20037;-53
2021/06/23 02:53:03;;;;;;;9.15;0.75;;;20.10;98.80;;;19.63;63.49;100328.41;4910228;28;20040;-56
2021/06/23 02:55:29;;;;;;;9.10;0.98;;;20.10;98.90;;;19.58;64.05;100324.75;4910124;29;20475;-48
2021/06/23 02:57:57;;;;;;;8.05;1.20;;;20.10;99.20;;;19.58;64.23;100322.09;4893130;28;20051;-51
2021/06/23 03:00:23;;;;;;;4.47;0.82;;;20.10;99.40;;;19.61;64.09;100326.97;4909892;28;20059;-55
2021/06/23 03:02:49;;;;;;;7.00;2.03;;;20.10;99.30;;;19.61;63.79;100324.34;4910374;29;20044;-60
2021/06/23 03:05:15;;;;;;;8.43;0.82;;;20.10;99.40;;;19.67;63.69;100320.88;4910108;29;20119;-56
2021/06/23 03:07:44;;;;;;;4.65;0.75;;;20.10;99.30;;;19.74;63.65;100332.25;4910037;29;20185;-57
2021/06/23 03:10:13;;;;;;;9.25;1.17;;;20.20;99.40;;;19.69;63.84;100329.41;4909845;28;20028;-61
2021/06/23 03:12:40;;;;;;;9.27;1.13;;;20.20;99.40;;;19.62;63.78;100334.69;4909606;28;20435;-55
2021/06/23 03:15:08;;;;;;;12.10;1.38;;;20.10;99.20;;;19.57;63.81;100333.69;4909345;29;20042;-60
2021/06/23 03:17:34;;;;;;;5.85;0.82;;;20.10;99.20;;;19.61;63.36;100326.97;4892651;28;20048;-53
2021/06/23 03:20:09;;;;;;;4.55;0.95;;;20.10;99.00;;;19.72;61.21;100334.28;4909733;28;20028;-58
2021/06/23 03:22:35;;;;;;;5.70;0.80;;;20.10;97.60;;;19.91;60.26;100348.44;4909458;29;20070;-55
2021/06/23 03:25:02;;;;;;;6.22;0.75;;;20.30;96.60;;;19.95;59.44;100336.44;4909375;29;20543;-54
2021/06/23 03:27:28;;;;;;;4.70;0.60;;;20.40;96.20;;;20.09;58.87;100338.81;4909151;29;20040;-63
2021/06/23 03:29:54;;;;;;;6.63;0.95;;;20.50;95.60;;;20.20;58.47;100337.34;4892220;29;20051;-58
2021/06/23 03:32:20;;;;;;;7.20;0.80;;;20.60;95.00;;;20.30;57.62;100337.72;4909333;29;20040;-45
2021/06/23 03:34:46;;;;;;;6.60;0.75;;;20.70;94.40;;;20.42;57.85;100343.97;4909522;29;20028;-58
2021/06/23 03:37:13;;;;;;;10.38;1.30;;;20.90;94.70;;;20.22;59.57;100332.66;4909043;29;20475;-55
2021/06/23 03:39:39;;;;;;;9.02;1.17;;;20.80;95.50;;;20.20;59.28;100332.88;4891959;29;20032;-59
2021/06/23 03:42:06;;;;;;;5.60;0.75;;;20.70;95.20;;;20.12;59.50;100351.63;4891885;29;20051;-52
2021/06/23 03:44:32;;;;;;;11.93;1.02;;;20.60;95.40;;;20.10;59.61;100347.56;4892143;28;20123;-65
2021/06/23 03:46:59;;;;;;;3.60;0.60;;;20.60;95.40;;;20.26;58.25;100341.00;4909132;29;20339;-57
2021/06/23 03:49:25;;;;;;;10.93;0.63;;;20.70;94.60;;;20.24;58.84;100338.56;4907636;29;20503;-63
2021/06/23 03:51:51;;;;;;;10.70;1.20;;;20.70;94.70;;;20.31;58.55;100344.63;4892121;29;20051;-57
2021/06/23 03:54:17;;;;;;;11.68;1.08;;;20.80;94.70;;;20.40;58.38;100335.44;4891951;29;20032;-58
2021/06/23 03:56:43;;;;;;;4.97;0.70;;;20.90;94.40;;;20.49;57.85;100346.59;4891940;29;20044;-48
2021/06/23 03:59:08;;;;;;;13.35;1.13;;;20.90;94.00;;;20.70;56.86;100346.28;4908966;29;20353;-51
2021/06/23 04:01:34;;;;;;;8.73;1.20;;;21.10;93.50;;;20.79;56.61;100347.66;4909178;29;20416;-49
2021/06/23 04:04:00;;;;;;;6.07;0.73;;;21.30;93.20;;;20.69;57.43;100357.88;4909166;29;20041;-58
2021/06/23 04:06:31;;;;;;;5.90;0.77;;;21.30;93.20;;;21.09;55.81;100363.72;4909000;29;20052;-53
2021/06/23 04:08:57;;;;;;;6.85;0.77;;;21.60;92.70;;;21.62;54.44;100367.78;4909261;29;20032;-55
2021/06/23 04:11:23;;;;;;;6.97;0.70;;;22.10;91.30;;;22.22;52.77;100365.28;4891668;29;20495;-48
2021/06/23 04:13:49;;;;;;;10.82;0.80;;;22.90;90.00;;;22.92;51.34;100366.38;4909057;29;20040;-57
2021/06/23 04:16:15;;;;;;;14.18;1.42;;;23.80;86.80;;;23.43;50.20;100359.63;4908812;29;20462;-58
2021/06/23 04:18:41;;;;;;;11.20;1.65;;;24.50;82.90;;;23.98;49.35;100362.72;4908737;29;20046;-54
2021/06/23 04:21:07;;;;;;;7.05;0.50;;;25.30;79.60;;;24.01;48.90;100356.94;4908904;29;20048;-58
2021/06/23 04:23:34;;;;;;;10.77;0.90;;;25.60;76.20;;;24.17;48.73;100360.69;4908720;29;20119;-50
2021/06/23 04:26:01;;;;;;;6.82;1.17;;;25.60;75.60;;;24.54;47.97;100349.72;4908370;29;20043;-50
2021/06/23 04:28:27;;;;;;;8.57;1.50;;;26.10;73.80;;;24.38;47.68;100344.09;4891586;29;20044;-51
2021/06/23 04:30:53;;;;;;;11.00;1.35;;;26.30;71.00;;;25.36;45.53;100348.16;4908789;29;20094;-55
2021/06/23 04:33:19;;;;;;;5.07;1.15;;;26.90;70.10;;;25.84;44.09;100332.56;4908623;29;20183;-52
2021/06/23 04:35:47;;;;;;;5.95;0.65;;;27.70;66.30;;;26.01;43.12;100328.75;4908544;29;20473;-60
2021/06/23 04:38:13;;;;;;;7.35;0.80;;;28.00;63.60;;;25.86;42.96;100331.25;4908519;29;20040;-55
2021/06/23 04:40:40;;;;;;;10.00;0.68;;;27.80;63.10;;;26.23;42.69;100335.94;4891442;29;20122;-53
2021/06/23 04:43:06;;;;;;;9.73;0.93;;;28.30;62.10;;;26.34;42.79;100337.69;4891464;29;20036;-60
2021/06/23 04:45:32;;;;;;;9.23;1.65;;;28.50;61.60;;;26.16;43.18;100340.66;4908499;29;20032;-51
2021/06/23 04:47:59;;;;;;;7.40;0.73;;;28.40;60.60;;;26.16;43.50;100338.00;4908231;28;20484;-56
2021/06/23 04:50:25;;;;;;;10.30;0.98;;;28.40;61.20;;;25.85;44.13;100334.97;4908623;29;20028;-50
2021/06/23 04:52:51;;;;;;;10.20;1.30;;;28.10;62.10;;;25.42;45.92;100341.84;4908354;29;20047;-55
2021/06/23 04:55:17;;;;;;;5.30;0.73;;;27.60;63.70;;;25.75;45.06;100335.66;4908815;29;20040;-55
2021/06/23 04:57:44;;;;;;;5.22;1.05;;;27.80;63.20;;;25.83;45.55;100331.75;4908887;29;20119;-54
2021/06/23 05:00:11;;;;;;;7.88;0.90;;;28.00;63.10;;;25.98;44.73;100339.13;4908468;28;20058;-51
2021/06/23 05:02:38;;;;;;;7.18;0.95;;;28.20;62.10;;;25.88;44.60;100337.16;4908744;29;20064;-57
2021/06/23 05:05:05;;;;;;;7.88;0.85;;;28.30;61.40;;;26.58;43.73;100333.66;4908621;29;20060;-59
2021/06/23 05:07:31;;;;;;;6.97;1.05;;;29.00;60.70;;;27.03;42.23;100329.78;4910784;29;20044;-56
2021/06/23 05:09:56;;;;;;;8.65;1.10;;;29.50;58.50;;;27.35;41.72;100341.25;4911812;29;20032;-57
2021/06/23 05:12:26;;;;;;;5.32;0.50;;;29.70;58.60;;;27.33;41.67;100346.03;4911319;29;20028;-54
2021/06/23 05:14:52;;;;;;;7.15;1.55;;;29.60;58.30;;;27.25;42.13;100341.16;4894276;28;20060;-50
2021/06/23 05:17:18;;;;;;;10.00;1.52;;;29.60;58.20;;;27.25;42.09;100359.09;4911436;29;20029;-54
2021/06/23 05:19:44;;;;;;;17.83;1.05;;;30.10;57.10;;;27.98;40.86;100352.81;4911357;29;20159;-62
2021/06/23 05:22:12;;;;;;;8.65;0.88;;;30.60;56.60;;;28.20;39.76;100351.81;4911463;29;20072;-53
2021/06/23 05:24:40;;;;;;;14.70;1.40;;;31.10;55.10;;;27.47;41.46;100361.63;4911500;29;20036;-54
2021/06/23 05:27:08;;;;;;;5.88;0.80;;;30.40;55.60;;;27.55;41.32;100355.78;4911237;29;20032;-57
2021/06/23 05:29:34;;;;;;;7.53;0.88;;;30.30;55.70;;;27.28;42.00;100353.22;4911192;29;20122;-55
2021/06/23 05:32:00;;;;;;;5.82;1.00;;;30.00;56.10;;;28.41;39.59;100345.47;4894111;29;20514;-58
2021/06/23 05:34:26;;;;;;;7.15;0.65;;;30.80;55.10;;;29.06;38.50;100349.28;4911228;29;20133;-56
2021/06/23 05:36:52;;;;;;;7.82;1.02;;;31.60;53.30;;;29.03;38.25;100355.19;4893787;28;20187;-55
2021/06/23 05:39:18;;;;;;;10.98;1.42;;;31.80;52.80;;;29.54;37.86;100368.56;4911091;29;20354;-54
2021/06/23 05:41:44;;;;;;;10.60;1.25;;;32.30;52.30;;;29.37;37.71;100358.88;4910963;29;20600;-61
2021/06/23 05:44:10;;;;;;;3.88;0.68;;;32.60;51.50;;;29.33;37.99;100376.59;4910916;29;20083;-50
2021/06/23 05:46:36;;;;;;;10.98;1.20;;;32.70;51.10;;;29.81;37.59;100374.38;4911043;29;20082;-58
2021/06/23 05:49:01;;;;;;;6.90;1.35;;;32.50;51.70;;;29.47;37.78;100368.84;4911452;29;20589;-57
2021/06/23 05:51:27;;;;;;;9.70;1.10;;;32.70;51.10;;;29.50;38.20;100370.19;4910756;29;20036;-54
2021/06/23 05:53:53;;;;;;;11.27;1.30;;;32.70;51.30;;;29.79;37.65;100370.34;4910829;29;20131;-56
2021/06/23 05:56:19;;;;;;;11.70;1.20;;;32.70;51.50;;;30.05;37.31;100366.53;4911003;28;20129;-58
2021/06/23 05:58:45;;;;;;;6.18;1.10;;;33.30;50.70;;;29.87;37.80;100378.66;4911314;28;20562;-61
2021/06/23 06:01:11;;;;;;;12.32;2.22;;;32.90;51.00;;;29.06;38.97;100370.75;4911184;29;20599;-61
2021/06/23 06:03:38;;;;;;;13.05;1.13;;;32.50;51.20;;;29.06;38.89;100368.06;4910983;29;20051;-57
2021/06/23 06:06:04;;;;;;;13.85;1.27;;;32.30;51.10;;;29.88;37.91;100364.16;4910890;28;20094;-59
2021/06/23 06:08:30;;;;;;;11.02;0.88;;;32.90;51.20;;;30.68;36.25;100367.53;4893420;29;20039;-58
2021/06/23 06:10:56;;;;;;;9.13;0.80;;;33.90;49.50;;;30.30;36.52;100376.31;4910948;29;20115;-51
2021/06/23 06:13:23;;;;;;;9.18;0.63;;;33.90;49.00;;;30.39;36.22;100369.28;4909288;29;20449;-52
2021/06/23 06:15:49;;;;;;;9.38;0.75;;;33.70;49.00;;;30.11;36.67;100381.56;4910501;29;20091;-54
2021/06/23 06:18:15;;;;;;;5.80;0.70;;;33.30;49.40;;;29.78;37.71;100387.53;4909135;29;20336;-57
2021/06/23 06:20:41;;;;;;;8.52;1.23;;;32.90;50.20;;;30.10;36.87;100388.00;4910307;29;20040;-55
2021/06/23 06:23:08;;;;;;;7.20;0.60;;;33.10;50.00;;;30.16;36.78;100394.16;4893452;29;20036;-56
2021/06/23 06:25:34;;;;;;;15.93;1.35;;;33.40;49.60;;;30.55;36.09;100402.28;4910389;29;20523;-56
2021/06/23 06:28:00;;;;;;;3.72;0.98;;;33.70;49.00;;;30.28;36.95;100408.03;4910602;29;20043;-50
2021/06/23 06:30:27;;;;;;;6.47;0.80;;;33.80;48.90;;;30.82;36.42;100415.28;4910217;29;20380;-49
2021/06/23 06:32:54;;;;;;;6.57;0.88;;;34.10;49.00;;;30.74;36.15;100418.56;4910325;29;20369;-55
2021/06/23 06:35:21;;;;;;;14.02;1.23;;;34.20;48.50;;;32.09;34.37;100422.19;4910484;29;20040;-58
2021/06/23 06:37:48;;;;;;;9.40;0.90;;;35.20;47.80;;;32.17;34.30;100422.34;4910677;28;20133;-61
2021/06/23 06:40:15;;;;;;;7.47;1.02;;;35.80;46.70;;;31.76;34.69;100427.41;4910203;28;20056;-54
2021/06/23 06:42:41;;;;;;;3.75;0.73;;;35.60;46.60;;;31.00;35.96;100447.72;4892150;29;20379;-63
2021/06/23 06:45:08;;;;;;;8.23;0.90;;;34.60;47.50;;;30.98;35.62;100447.19;4909692;29;20131;-57
2021/06/23 06:47:34;;;;;;;7.78;0.98;;;34.60;47.50;;;31.06;35.54;100443.09;4909896;29;20487;-53
2021/06/23 06:50:00;;;;;;;14.07;0.95;;;34.50;47.90;;;30.87;35.77;100456.41;4892844;29;20048;-51
2021/06/23 06:52:26;;;;;;;6.70;1.10;;;34.00;48.50;;;31.14;35.38;100457.88;4910104;29;20048;-51
2021/06/23 06:54:52;;;;;;;8.32;0.80;;;34.00;48.50;;;31.11;35.59;100467.28;4910091;29;20176;-58
2021/06/23 06:57:18;;;;;;;13.30;1.05;;;34.10;48.40;;;31.01;35.24;100464.66;4877083;29;20145;-56
2021/06/23 06:59:45;;;;;;;8.13;1.08;;;33.90;48.70;;;31.24;35.17;100469.34;4910128;29;20032;-58
2021/06/23 07:02:10;;;;;;;14.60;1.33;;;34.20;48.30;;;31.81;34.10;100469.66;4909678;29;20559;-60
2021/06/23 07:04:37;;;;;;;7.95;0.98;;;34.80;47.40;;;31.28;34.72;100475.75;4909693;29;20135;-53
2021/06/23 07:07:04;;;;;;;8.38;1.15;;;34.50;47.60;;;31.22;34.84;100463.44;4909719;29;20032;-57
2021/06/23 07:09:30;;;;;;;8.85;1.15;;;34.20;48.10;;;30.60;36.12;100481.03;4909754;29;20130;-61
2021/06/23 07:11:56;;;;;;;14.23;1.35;;;33.30;49.60;;;30.13;37.35;100483.38;4906094;29;20139;-58
2021/06/23 07:14:22;;;;;;;6.30;0.70;;;31.60;52.60;;;29.42;38.34;100478.06;4908045;28;20068;-56
2021/06/23 07:16:48;;;;;;;7.53;0.80;;;30.60;54.20;;;29.02;39.15;100491.16;4909038;29;20047;-64
2021/06/23 07:19:15;;;;;;;10.00;0.68;;;30.00;55.60;;;28.51;40.60;100481.34;4910286;29;20040;-58
2021/06/23 07:21:42;;;;;;;6.65;1.23;;;29.50;56.60;;;28.32;40.98;100489.06;4910482;28;20200;-59
2021/06/23 07:24:08;;;;;;;8.18;1.00;;;29.20;57.50;;;28.61;40.61;100492.09;4910114;28;20039;-57
2021/06/23 07:26:35;;;;;;;12.07;1.25;;;29.20;58.10;;;28.86;40.52;100494.88;4892836;28;20051;-61
2021/06/23 07:29:03;;;;;;;7.65;1.52;;;29.20;58.10;;;28.88;40.04;100489.25;4909901;28;20502;-59
2021/06/23 07:36:36;;;;;;;14.95;1.42;;;29.80;57.90;;;29.60;39.17;100485.59;4909892;29;20078;-57
2021/06/23 07:39:12;;;;;;;16.50;1.88;;;29.90;57.60;;;29.84;39.09;100483.94;4892701;29;20462;-48
2021/06/23 07:41:45;;;;;;;4.88;1.00;;;30.10;57.70;;;29.55;39.50;100482.91;4909617;28;20044;-55
2021/06/23 07:44:13;;;;;;;8.60;1.02;;;30.20;57.80;;;29.87;38.86;100480.69;4909795;29;20089;-62
2021/06/23 07:46:49;;;;;;;6.15;1.00;;;30.30;57.50;;;29.85;38.63;100477.47;4926833;28;20042;-58
2021/06/23 07:49:16;;;;;;;9.45;1.23;;;30.30;56.70;;;30.23;37.83;100480.66;4991005;28;20033;-56
2021/06/23 07:54:32;;;;;;;10.05;1.02;;;30.60;56.80;;;30.83;36.79;100486.81;5009112;28;20457;-64
2021/06/23 08:12:56;;;;;;;17.90;1.65;;;31.80;55.30;;;32.17;35.43;100480.81;5008375;28;20124;-52
2021/06/23 08:15:24;;;;;;;13.50;1.50;;;32.40;54.90;;;31.88;35.32;100470.94;4990491;28;20030;-59
2021/06/23 08:17:50;;;;;;;10.48;2.08;;;32.60;54.00;;;31.83;35.58;100470.16;5008219;28;20057;-57
2021/06/23 08:20:17;;;;;;;14.70;1.58;;;32.40;54.00;;;31.95;35.68;100471.38;5008416;28;20034;-55
2021/06/23 08:22:43;;;;;;;20.52;1.83;;;32.40;54.00;;;31.49;35.75;100470.22;5006594;28;20030;-50
2021/06/23 08:25:10;;;;;;;12.48;1.75;;;32.20;54.20;;;31.55;36.30;100480.66;5006846;28;20488;-62
2021/06/23 08:27:36;;;;;;;14.07;2.00;;;32.20;54.50;;;31.76;36.04;100473.19;5006217;28;20460;-53
2021/06/23 08:30:04;;;;;;;19.58;2.75;;;32.20;54.80;;;32.09;35.50;100476.91;5008283;28;20029;-52
2021/06/23 08:32:30;;;;;;;16.70;2.35;;;32.50;54.30;;;32.01;35.63;100472.13;5008502;28;20041;-51
2021/06/23 08:34:55;;;;;;;15.88;2.22;;;32.40;54.20;;;32.18;35.33;100477.84;5008151;28;20107;-50
2021/06/23 08:37:21;;;;;;;19.50;2.15;;;32.60;54.10;;;32.24;34.89;100468.63;5008040;28;20056;-48
2021/06/23 08:39:47;;;;;;;15.02;1.80;;;32.60;54.40;;;32.42;35.08;100468.97;5008094;28;20037;-56
2021/06/23 08:42:13;;;;;;;17.02;2.00;;;32.80;54.30;;;32.31;35.41;100463.72;5007240;28;20393;-55
2021/06/23 08:44:39;;;;;;;22.33;2.13;;;32.80;54.90;;;32.26;35.35;100457.56;5008054;28;20030;-53
2021/06/23 08:47:06;;;;;;;18.33;1.70;;;32.80;54.00;;;32.02;35.46;100457.56;5007952;28;20133;-57
2021/06/23 08:49:33;;;;;;;26.45;3.33;;;32.70;54.60;;;31.70;36.14;100452.78;5006535;28;20062;-50
2021/06/23 08:51:58;;;;;;;12.63;2.28;;;32.30;54.60;;;32.42;34.84;100450.91;4990319;28;20091;-55
2021/06/23 08:54:29;;;;;;;23.35;2.75;;;32.60;54.40;;;32.93;34.74;100450.19;5008063;28;20072;-51
2021/06/23 08:56:55;;;;;;;19.73;2.50;;;33.00;54.60;;;33.17;33.68;100450.88;5006234;28;20038;-51
2021/06/23 08:59:21;;;;;;;21.58;2.65;;;33.30;53.60;;;32.71;34.47;100449.97;5007929;28;20032;-55
2021/06/23 09:01:49;;;;;;;21.17;2.75;;;33.10;53.40;;;32.74;34.50;100450.19;5007693;28;20424;-54
2021/06/23 09:04:17;;;;;;;21.58;2.80;;;33.00;54.00;;;33.44;34.14;100446.69;5007917;28;20390;-52
2021/06/23 09:06:53;;;;;;;17.15;2.70;;;33.40;54.00;;;33.21;33.23;100437.59;5006322;28;20560;-54
2021/06/23 09:09:30;;;;;;;24.95;2.55;;;33.60;53.20;;;33.60;33.79;100434.50;5007595;28;20478;-56
2021/06/23 09:11:59;;;;;;;23.65;2.40;;;33.70;53.50;;;33.15;33.96;100436.88;5008085;28;20038;-56
2021/06/23 09:14:29;;;;;;;23.90;3.90;;;33.90;52.70;;;33.24;33.33;100431.59;5027620;28;20373;-55
2021/06/23 09:17:15;;;;;;;20.58;2.28;;;33.70;53.00;;;33.32;34.21;100430.16;5027297;28;20033;-55
2021/06/23 09:19:58;;;;;;;18.10;2.50;;;33.60;53.60;;;33.41;33.64;100429.19;5027404;28;20469;-61
2021/06/23 09:22:44;;;;;;;15.35;2.47;;;33.70;53.20;;;33.25;33.56;100417.81;5027330;28;20076;-47
2021/06/23 09:25:12;;;;;;;23.40;2.55;;;33.70;52.50;;;33.04;34.38;100413.88;5027228;28;20422;-51
2021/06/23 09:27:46;;;;;;;20.98;2.92;;;33.50;53.20;;;33.41;33.62;100414.88;5027369;28;20055;-50
2021/06/23 09:30:35;;;;;;;23.25;3.00;;;33.60;53.00;;;33.76;32.64;100406.09;5027052;28;20037;-56
2021/06/23 09:33:25;;;;;;;15.48;2.78;;;34.10;51.80;;;34.01;33.20;100412.94;5027234;28;20040;-56
2021/06/23 09:36:01;;;;;;;18.63;2.60;;;34.20;52.70;;;33.66;33.31;100400.88;5027173;28;20054;-51
2021/06/23 09:38:43;;;;;;;19.33;3.42;;;34.20;52.00;;;33.86;33.00;100413.25;5026866;28;20444;-54
2021/06/23 09:41:28;;;;;;;19.67;3.33;;;34.10;52.80;;;34.19;31.83;100414.69;5027203;28;20411;-51
2021/06/23 09:44:05;;;;;;;30.13;2.40;;;34.30;52.60;;;34.31;32.20;100406.09;5027177;28;20049;-51
2021/06/23 09:46:40;;;;;;;19.83;3.03;;;34.50;52.00;;;34.02;32.76;100401.03;5027131;28;20049;-56
2021/06/23 09:49:21;;;;;;;26.73;2.35;;;34.30;52.20;;;34.71;32.35;100400.84;5019061;28;20133;-56
2021/06/23 09:51:54;;;;;;;19.13;2.45;;;34.80;52.40;;;35.05;32.38;100400.31;5027271;28;20112;-52
2021/06/23 09:54:28;;;;;;;12.80;2.53;;;35.20;52.30;;;35.18;31.48;100402.94;5030650;28;20034;-54
2021/06/23 09:57:14;;;;;;;15.00;2.28;;;35.40;50.90;;;34.98;31.61;100413.47;5031138;28;20037;-49
2021/06/23 09:59:43;;;;;;;18.13;3.05;;;35.30;51.20;;;34.74;31.63;100403.75;5028984;28;20037;-51
2021/06/23 10:02:29;;;;;;;19.98;3.17;;;35.20;50.80;;;34.81;30.94;100406.06;5012512;28;20052;-52
2021/06/23 10:05:17;;;;;;;21.15;3.22;;;35.30;50.10;;;34.69;31.55;100409.28;5030490;28;20113;-55
2021/06/23 10:07:48;;;;;;;19.17;3.15;;;35.10;50.70;;;34.23;31.65;100409.47;5030210;28;20048;-51
2021/06/23 10:10:18;;;;;;;27.52;3.85;;;34.80;50.80;;;34.01;32.43;100404.03;5028883;28;20041;-53
2021/06/23 10:12:54;;;;;;;19.05;3.45;;;34.50;51.30;;;34.74;31.49;100395.63;5030721;28;20115;-54
2021/06/23 10:15:22;;;;;;;17.35;2.67;;;34.80;51.00;;;34.21;32.28;100395.47;5030524;28;20041;-55
2021/06/23 10:17:48;;;;;;;23.60;3.65;;;34.60;51.20;;;34.33;32.43;100397.69;5030187;28;20752;-59
2021/06/23 10:20:17;;;;;;;22.45;2.65;;;34.60;51.70;;;34.75;31.60;100391.03;5030014;28;20036;-58
2021/06/23 10:22:45;;;;;;;19.90;2.70;;;35.00;51.80;;;34.88;31.73;100391.00;5030191;28;20037;-56
2021/06/23 10:25:15;;;;;;;18.05;2.38;;;35.20;51.30;;;35.09;31.42;100393.97;5030240;28;20123;-60
2021/06/23 10:27:46;;;;;;;23.83;3.10;;;35.30;50.80;;;35.18;31.39;100385.91;5030207;28;20136;-59
2021/06/23 10:30:14;;;;;;;24.55;2.97;;;35.30;50.80;;;35.59;31.21;100388.34;5030060;28;20029;-59
2021/06/23 10:32:41;;;;;;;34.83;2.83;;;35.70;51.50;;;35.74;30.98;100401.47;5028290;28;20037;-61
2021/06/23 10:35:08;;;;;;;26.00;3.58;;;36.00;50.80;;;35.92;31.23;100395.00;5028700;28;20037;-54
2021/06/23 10:37:38;;;;;;;17.23;3.30;;;36.10;50.90;;;36.06;30.95;100399.50;5029908;28;20045;-60
2021/06/23 10:40:10;;;;;;;22.05;3.15;;;36.30;50.70;;;35.84;30.61;100398.50;5028395;28;20029;-46
2021/06/23 10:42:36;;;;;;;23.42;3.60;;;36.20;50.00;;;35.58;31.37;100403.00;5029949;28;20037;-50
2021/06/23 10:45:04;;;;;;;23.42;2.40;;;35.90;50.50;;;35.57;31.08;100402.19;5029582;28;20540;-58
2021/06/23 10:47:49;;;;;;;20.25;3.15;;;36.00;50.50;;;34.95;31.54;100398.69;5029531;28;20152;-59
2021/06/23 10:50:32;;;;;;;16.20;2.40;;;35.50;50.30;;;35.29;31.73;100403.50;5028204;28;20060;-54